UKDDUSCC

Guest
Details From UKDD - Dnipropetrovsk Intl
To USCC - Balandino
Flight Number -
Tags Generated
Created
Modified
Stats Distance 1,057 nm / 1,957 km
Max Altitude 0 ft / 0 m
Waypoints 4
Social Downloads 0
Likes 0
Share VATSIM

Download

Looking for another format? Having issues loading an existing format? Contact us
Advertisement - Login to hide

Notes

Generated

Route

UKDD PEGAS LB USCC

ID Type Via Altitude Latitude Longitude Leg Dist Tot Dist Heading (true) Name
O UKDD APT - 0 ft / 0 m 48.35722˚ 35.08126˚ - 0 nm - -
PEGAS FIX - 0 ft / 0 m 52.58500˚ 47.02333˚ 521 nm 521 nm 56° / 66° -
LB NDB - 0 ft / 0 m 55.31667˚ 61.42167˚ 533 nm 1054 nm 66° / 78° CHELYABINSK NDB
O USCC APT - 0 ft / 0 m 55.30921˚ 61.47889˚ 2 nm 1056 nm 103° / 103° -

Altitude Profile

Advertisement - Login to hide

Weather


0- 5 10 15 20 25 30 35+ Temperature / ° C

Clouds and Precipitation
Forecast for 2017-12-11 12:00 UTC. Updated a minute ago

Ground ~20,000 ft ~40,000 ft Winds

UKDD

Details ICAO UKDD (DNK)
Name Dnipropetrovsk Intl
Region Ukraine
Timezone Europe/Kiev (UTC+2.0)
Stats Elevation 481 ft / 147 m (AMSL)
Location 48.357222° 35.100556°
Runways 1
Magnetic Variation 7.842° E

METAR

UKDD 110900Z 19006MPS 150V220 CAVOK 03/M01 Q1015 R26/210170 NOSIG

Decode

TAF

TAF UKDD 110513Z 1106/1206 21006MPS 9999 BKN012 TEMPO 1106/1206 21010G15MPS TEMPO 1119/1124 3100 -SHRA BKN015CB TX08/1205Z TNM01/1106Z

Decode

Departure Runways

ID Width Length Bearing (true) Bearing (mag) Surface Threshold Offset Overrun Length
09 144 ft / 44 m 9,359 ft / 2,853 m 89.99° 82.15° Concrete 0 ft / 0 m 0 ft / 0 m
27 144 ft / 44 m 9,359 ft / 2,853 m 270.01° 262.17° Concrete 0 ft / 0 m 0 ft / 0 m

USCC

Details ICAO USCC (CEK)
Name BALANDINO
Region Russia
Timezone Asia/Yekaterinburg (UTC+5.0)
Stats Elevation 769 ft / 234 m (AMSL)
Location 55.305843° 61.503320°
Runways 1
Magnetic Variation 13.793° E

METAR

USCC 110900Z 31004MPS CAVOK M12/M15 Q1027 R27/450250 NOSIG RMK QFE750

Decode

TAF

TAF TAF USCC 110800Z 1109/1209 30004MPS 9999 SCT020CB TEMPO 1109/1112 3100 -SHSN SCT011CB FM111200 29003MPS 3100 BR BKN011CB TEMPO 1112/1205 25003MPS 2100 -SHSN BR VV007

Decode

Destination Runways

ID Width Length Bearing (true) Bearing (mag) Surface Threshold Offset Overrun Length
09 197 ft / 60 m 10,443 ft / 3,183 m 103.59° 89.80° Concrete 0 ft / 0 m 230 ft / 70 m
27 197 ft / 60 m 10,443 ft / 3,183 m 283.63° 269.84° Concrete 0 ft / 0 m 230 ft / 70 m

Approach Navaids

Runway Type Ident Frequency Range Bearing (true) Bearing (mag) Slope Elevation
09 Localiser ILB 109.90 MHz 18 nm / 33 km 105.25° 91.46° - 769 ft / 234 m (AMSL)
09 Glidescope ILB 109.90 MHz 10 nm / 19 km 103.61° 89.82° 2.80° 769 ft / 234 m (AMSL)
27 Localiser IKS 108.70 MHz 18 nm / 33 km 282.19° 268.39° - 769 ft / 234 m (AMSL)
27 Glidescope IKS 108.70 MHz 10 nm / 19 km 283.61° 269.82° 2.80° 769 ft / 234 m (AMSL)